createdAt,value
2023-11-04T00:02:03.050Z,3.63
2023-11-04T00:04:29.868Z,3.57
2023-11-04T00:06:56.820Z,3.67
2023-11-04T00:09:34.433Z,4.00
2023-11-04T00:12:08.967Z,3.30
2023-11-04T00:14:36.355Z,3.27
2023-11-04T00:17:03.540Z,3.70
2023-11-04T00:19:30.328Z,3.43
2023-11-04T00:21:57.130Z,2.93
2023-11-04T00:24:24.012Z,4.00
2023-11-04T00:26:50.768Z,3.80
2023-11-04T00:29:17.485Z,3.47
2023-11-04T00:31:44.252Z,3.53
2023-11-04T00:34:11.157Z,3.30
2023-11-04T00:36:38.042Z,3.80
2023-11-04T00:39:04.964Z,4.03
2023-11-04T00:41:33.478Z,3.97
2023-11-04T00:44:00.205Z,3.57
2023-11-04T00:46:27.273Z,3.40
2023-11-04T00:48:55.290Z,3.57
2023-11-04T00:51:22.815Z,3.70
2023-11-04T00:53:49.602Z,4.10
2023-11-04T00:56:16.447Z,4.43
2023-11-04T00:58:43.185Z,4.27
2023-11-04T01:01:09.922Z,3.63
2023-11-04T01:03:36.764Z,4.03
2023-11-04T01:06:03.913Z,4.37
2023-11-04T01:08:30.627Z,3.73
2023-11-04T01:10:58.492Z,3.63
2023-11-04T01:13:26.528Z,3.93
2023-11-04T01:15:53.377Z,4.07
2023-11-04T01:18:23.236Z,3.93
2023-11-04T01:20:50.095Z,3.63
2023-11-04T01:23:16.871Z,3.23
2023-11-04T01:25:44.127Z,4.07
2023-11-04T01:28:10.890Z,3.67
2023-11-04T01:30:37.728Z,3.57
2023-11-04T01:33:05.034Z,3.80
2023-11-04T01:35:31.957Z,3.43
2023-11-04T01:37:58.652Z,4.23
2023-11-04T01:40:25.410Z,3.47
2023-11-04T01:42:52.276Z,3.20
2023-11-04T01:45:19.043Z,3.13
2023-11-04T01:47:46.458Z,3.43
2023-11-04T01:50:13.460Z,3.40
2023-11-04T01:52:43.883Z,2.90
2023-11-04T01:55:11.767Z,2.90
2023-11-04T01:57:38.900Z,3.53
2023-11-04T02:00:07.256Z,3.57
2023-11-04T02:02:34.705Z,3.63
2023-11-04T02:05:02.219Z,3.57
2023-11-04T02:07:29.238Z,3.43
2023-11-04T02:09:56.130Z,3.90
2023-11-04T02:12:24.041Z,3.60
2023-11-04T02:14:52.487Z,3.37
2023-11-04T02:17:20.252Z,3.87
2023-11-04T02:20:06.738Z,3.70
2023-11-04T02:22:33.670Z,3.10
2023-11-04T02:25:00.550Z,3.40
2023-11-04T02:27:27.355Z,3.33
2023-11-04T02:29:54.355Z,3.50
2023-11-04T02:32:21.077Z,3.63
2023-11-04T02:34:47.824Z,3.63
2023-11-04T02:37:14.576Z,3.40
2023-11-04T02:39:41.378Z,3.47
2023-11-04T02:42:08.182Z,4.10
2023-11-04T02:44:34.900Z,3.10
2023-11-04T02:47:01.592Z,3.20
2023-11-04T02:49:28.346Z,3.23
2023-11-04T02:52:04.118Z,3.30
2023-11-04T02:54:35.948Z,3.20
2023-11-04T02:57:02.767Z,3.10
2023-11-04T02:59:31.375Z,2.80
2023-11-04T03:01:58.141Z,3.20
2023-11-04T03:04:26.897Z,3.53
2023-11-04T03:06:53.753Z,2.97
2023-11-04T03:09:20.540Z,3.20
2023-11-04T03:11:47.267Z,2.80
2023-11-04T03:14:13.982Z,2.90
2023-11-04T03:16:41.359Z,2.67
2023-11-04T03:19:08.220Z,2.60
2023-11-04T03:21:35.069Z,2.17
2023-11-04T03:24:01.833Z,2.60
2023-11-04T03:26:28.514Z,2.70
2023-11-04T03:28:55.214Z,2.40
2023-11-04T03:31:22.042Z,2.47
2023-11-04T03:33:48.829Z,2.60
2023-11-04T03:36:15.648Z,2.37
2023-11-04T03:38:42.546Z,2.80
2023-11-04T03:41:09.319Z,2.27
2023-11-04T03:43:36.734Z,2.77
2023-11-04T03:46:05.034Z,2.07
2023-11-04T03:48:32.554Z,2.53
2023-11-04T03:50:59.367Z,2.33
2023-11-04T03:53:26.313Z,2.43
2023-11-04T03:55:53.018Z,2.87
2023-11-04T03:58:19.805Z,2.60
2023-11-04T04:00:46.764Z,2.43
2023-11-04T04:03:13.596Z,2.73
2023-11-04T04:05:40.395Z,2.33
2023-11-04T04:08:07.980Z,2.30
2023-11-04T04:10:34.849Z,2.40
2023-11-04T04:13:01.565Z,2.20
2023-11-04T04:15:28.472Z,2.60
2023-11-04T04:17:55.311Z,2.37
2023-11-04T04:20:22.393Z,2.40
2023-11-04T04:22:49.793Z,2.93
2023-11-04T04:25:16.610Z,2.33
2023-11-04T04:27:43.393Z,2.30
2023-11-04T04:30:10.483Z,2.47
2023-11-04T04:32:37.342Z,2.30
2023-11-04T04:35:05.256Z,2.53
2023-11-04T04:37:31.972Z,2.60
2023-11-04T04:39:58.801Z,2.30
2023-11-04T04:42:25.632Z,2.50
2023-11-04T04:44:52.391Z,2.50
2023-11-04T04:47:19.250Z,1.87
2023-11-04T04:49:46.068Z,2.10
2023-11-04T04:52:13.273Z,2.50
2023-11-04T04:54:40.007Z,2.20
2023-11-04T04:57:06.733Z,2.40
2023-11-04T04:59:33.717Z,2.30
2023-11-04T05:02:03.553Z,2.40
2023-11-04T05:04:30.386Z,2.33
2023-11-04T05:06:57.303Z,2.43
2023-11-04T05:09:25.313Z,2.17
2023-11-04T05:11:53.667Z,2.30
2023-11-04T05:14:21.524Z,2.37
2023-11-04T05:16:48.337Z,2.53
2023-11-04T05:19:15.830Z,2.60
2023-11-04T05:21:42.802Z,2.70
2023-11-04T05:24:09.592Z,2.53
2023-11-04T05:26:41.768Z,2.63
2023-11-04T05:29:12.039Z,2.40
2023-11-04T05:31:38.778Z,2.67
2023-11-04T05:34:05.663Z,2.30
2023-11-04T05:36:32.410Z,2.20
2023-11-04T05:38:59.244Z,2.40
2023-11-04T05:41:25.948Z,2.53
2023-11-04T05:43:53.322Z,2.60
2023-11-04T05:46:20.046Z,3.10
2023-11-04T05:48:46.825Z,2.60
2023-11-04T05:51:13.659Z,2.50
2023-11-04T05:53:40.461Z,2.60
2023-11-04T05:56:08.522Z,2.63
2023-11-04T05:58:35.372Z,2.60
2023-11-04T06:01:02.233Z,2.50
2023-11-04T06:03:29.825Z,2.90
2023-11-04T06:05:57.176Z,2.37
2023-11-04T06:08:23.966Z,2.60
2023-11-04T06:10:50.679Z,2.30
2023-11-04T06:13:18.018Z,2.63
2023-11-04T06:15:45.074Z,2.60
2023-11-04T06:18:11.869Z,2.30
2023-11-04T06:20:38.787Z,2.70
2023-11-04T06:23:05.507Z,2.77
2023-11-04T06:25:32.212Z,2.50
2023-11-04T06:27:59.053Z,2.80
2023-11-04T06:30:25.832Z,2.67
2023-11-04T06:32:52.642Z,3.13
2023-11-04T06:35:21.415Z,3.00
2023-11-04T06:37:48.205Z,3.20
2023-11-04T06:40:15.116Z,2.97
2023-11-04T06:42:41.848Z,3.40
2023-11-04T06:45:09.074Z,3.20
2023-11-04T06:47:35.996Z,3.97
2023-11-04T06:50:05.022Z,4.00
2023-11-04T06:52:32.494Z,3.90
2023-11-04T06:55:00.616Z,3.60
2023-11-04T06:57:27.391Z,4.07
2023-11-04T06:59:54.198Z,4.23
2023-11-04T07:02:21.552Z,4.67
2023-11-04T07:04:48.277Z,4.33
2023-11-04T07:07:14.990Z,5.30
2023-11-04T07:09:41.755Z,5.63
2023-11-04T07:12:08.889Z,5.40
2023-11-04T07:14:35.608Z,6.07
2023-11-04T07:17:02.407Z,5.67
2023-11-04T07:19:29.145Z,5.87
2023-11-04T07:21:56.017Z,6.00
2023-11-04T07:24:22.813Z,6.90
2023-11-04T07:26:49.600Z,6.60
2023-11-04T07:29:18.510Z,6.60
2023-11-04T07:31:45.297Z,6.20
2023-11-04T07:34:12.203Z,6.30
2023-11-04T07:36:39.068Z,6.50
2023-11-04T07:39:08.345Z,6.57
2023-11-04T07:41:40.315Z,6.27
2023-11-04T07:44:07.244Z,6.23
2023-11-04T07:46:34.496Z,5.77
2023-11-04T07:49:01.206Z,5.80
2023-11-04T07:51:27.967Z,5.77
2023-11-04T07:53:54.733Z,5.67
2023-11-04T07:56:21.509Z,6.00
2023-11-04T07:58:48.282Z,6.40
2023-11-04T08:01:18.914Z,6.10
2023-11-04T08:03:46.451Z,6.00
2023-11-04T08:06:13.871Z,6.07
2023-11-04T08:08:41.092Z,5.53
2023-11-04T08:11:08.025Z,6.07
2023-11-04T08:13:34.753Z,7.23
2023-11-04T08:16:01.510Z,5.97
2023-11-04T08:18:32.878Z,12.90
2023-11-04T08:21:01.854Z,5.53
2023-11-04T08:23:28.847Z,5.43
2023-11-04T08:25:55.582Z,7.40
2023-11-04T08:28:22.576Z,5.23
2023-11-04T08:30:51.507Z,5.10
2023-11-04T08:33:18.513Z,4.70
2023-11-04T08:35:45.353Z,4.40
2023-11-04T08:38:12.156Z,4.13
2023-11-04T08:40:38.879Z,4.00
2023-11-04T08:43:05.724Z,4.13
2023-11-04T08:45:32.465Z,3.63
2023-11-04T08:47:59.308Z,3.90
2023-11-04T08:50:28.328Z,3.97
2023-11-04T08:52:55.270Z,5.00
2023-11-04T08:55:22.052Z,4.50
2023-11-04T08:57:48.826Z,3.63
2023-11-04T09:00:16.713Z,3.10
2023-11-04T09:02:43.427Z,3.30
2023-11-04T09:05:13.589Z,2.70
2023-11-04T09:07:44.497Z,2.60
2023-11-04T09:10:11.520Z,2.90
2023-11-04T09:12:39.398Z,2.42
2023-11-04T09:15:07.006Z,2.83
2023-11-04T09:17:33.928Z,2.92
2023-11-04T09:20:00.695Z,2.78
2023-11-04T09:22:27.447Z,2.40
2023-11-04T09:24:54.206Z,2.58
2023-11-04T09:27:21.178Z,2.58
2023-11-04T09:29:48.030Z,2.05
2023-11-04T09:32:14.762Z,2.60
2023-11-04T09:34:41.896Z,2.20
2023-11-04T09:37:08.769Z,3.17
2023-11-04T09:39:35.529Z,2.20
2023-11-04T09:42:02.545Z,2.00
2023-11-04T09:44:29.404Z,1.90
2023-11-04T09:46:56.240Z,2.10
2023-11-04T09:49:23.187Z,2.47
2023-11-04T09:51:51.167Z,2.30
2023-11-04T09:54:18.433Z,2.30
2023-11-04T09:56:45.643Z,2.22
2023-11-04T09:59:12.449Z,2.38
2023-11-04T10:01:41.438Z,1.80
2023-11-04T10:04:08.620Z,1.92
2023-11-04T10:06:35.922Z,2.85
2023-11-04T10:09:02.906Z,2.10
2023-11-04T10:11:29.842Z,1.73
2023-11-04T10:13:57.721Z,2.00
2023-11-04T10:16:24.826Z,1.95
2023-11-04T10:18:51.577Z,2.10
2023-11-04T10:21:19.420Z,1.65
2023-11-04T10:23:46.506Z,1.60
2023-11-04T10:26:16.196Z,2.40
2023-11-04T10:28:43.242Z,2.60
2023-11-04T10:31:12.598Z,1.80
2023-11-04T10:33:43.892Z,2.42
2023-11-04T10:36:12.792Z,1.70
2023-11-04T10:38:43.852Z,1.50
2023-11-04T10:41:14.514Z,1.40
2023-11-04T10:43:58.146Z,1.42
2023-11-04T10:46:39.893Z,1.30
2023-11-04T10:49:39.607Z,1.50
2023-11-04T10:52:13.742Z,1.25
2023-11-04T10:54:56.803Z,1.27
2023-11-04T10:57:31.734Z,1.35
2023-11-04T11:00:26.954Z,1.02
2023-11-04T11:02:54.178Z,1.02
2023-11-04T11:05:24.451Z,1.15
2023-11-04T11:07:51.999Z,1.10
2023-11-04T11:10:20.891Z,1.40
2023-11-04T11:12:56.262Z,1.20
2023-11-04T11:15:24.585Z,1.20
2023-11-04T11:17:58.027Z,1.15
2023-11-04T11:20:32.416Z,0.90
2023-11-04T11:23:01.174Z,1.08
2023-11-04T11:25:32.950Z,0.82
2023-11-04T11:28:00.610Z,0.88
2023-11-04T11:30:40.683Z,0.90
2023-11-04T11:33:12.312Z,0.60
2023-11-04T11:36:08.295Z,0.80
2023-11-04T11:38:36.467Z,1.10
2023-11-04T11:41:08.356Z,0.80
2023-11-04T11:43:36.536Z,0.80
2023-11-04T11:46:06.406Z,0.88
2023-11-04T11:48:40.848Z,0.90
2023-11-04T11:51:12.483Z,0.93
2023-11-04T11:53:43.445Z,0.70
2023-11-04T11:56:11.758Z,0.70
2023-11-04T11:58:39.654Z,0.50
2023-11-04T12:01:08.346Z,0.70
2023-11-04T12:03:37.047Z,1.20
2023-11-04T12:06:04.524Z,0.90
2023-11-04T12:08:32.136Z,0.80
2023-11-04T12:10:59.206Z,0.90
2023-11-04T12:13:26.362Z,0.80
2023-11-04T12:15:54.011Z,0.80
2023-11-04T12:18:21.123Z,1.20
2023-11-04T12:20:48.379Z,0.90
2023-11-04T12:23:16.500Z,1.47
2023-11-04T12:25:44.192Z,1.10
2023-11-04T12:28:12.053Z,1.00
2023-11-04T12:30:39.234Z,0.90
2023-11-04T12:33:06.870Z,0.90
2023-11-04T12:35:36.624Z,0.80
2023-11-04T12:38:03.630Z,2.07
2023-11-04T12:40:31.562Z,1.10
2023-11-04T12:43:04.141Z,7.87
2023-11-04T12:45:32.211Z,1.47
2023-11-04T12:47:59.181Z,4.07
2023-11-04T12:50:26.073Z,2.00
2023-11-04T12:52:54.239Z,3.03
2023-11-04T12:55:21.797Z,1.57
2023-11-04T12:57:48.904Z,3.60
2023-11-04T13:00:16.299Z,1.30
2023-11-04T13:02:43.359Z,0.70
2023-11-04T13:05:10.499Z,3.60
2023-11-04T13:07:38.436Z,1.10
2023-11-04T13:10:06.923Z,0.90
2023-11-04T13:12:34.019Z,2.50
2023-11-04T13:15:00.781Z,1.37
2023-11-04T13:17:27.596Z,0.90
2023-11-04T13:19:54.402Z,1.20
2023-11-04T13:22:21.263Z,1.23
2023-11-04T13:24:49.029Z,1.10
2023-11-04T13:27:15.869Z,1.20
2023-11-04T13:29:42.582Z,1.00
2023-11-04T13:32:09.714Z,1.30
2023-11-04T13:34:36.946Z,0.97
2023-11-04T13:37:04.774Z,1.07
2023-11-04T13:39:31.574Z,0.77
2023-11-04T13:41:58.445Z,1.10
2023-11-04T13:44:25.221Z,0.80
2023-11-04T13:46:52.053Z,1.50
2023-11-04T13:49:18.959Z,0.80
2023-11-04T13:51:45.857Z,1.00
2023-11-04T13:54:13.470Z,0.90
2023-11-04T13:56:40.233Z,0.80
2023-11-04T13:59:09.602Z,1.00
2023-11-04T14:01:36.728Z,0.90
2023-11-04T14:04:04.206Z,0.80
2023-11-04T14:06:31.437Z,1.07
2023-11-04T14:08:59.650Z,0.90
2023-11-04T14:11:27.099Z,0.60
2023-11-04T14:13:53.918Z,1.00
2023-11-04T14:16:20.725Z,0.87
2023-11-04T14:18:47.618Z,0.90
2023-11-04T14:21:15.128Z,1.37
2023-11-04T14:23:41.982Z,0.80
2023-11-04T14:26:10.066Z,0.80
2023-11-04T14:28:37.019Z,0.87
2023-11-04T14:31:04.881Z,0.77
2023-11-04T14:33:31.903Z,0.80
2023-11-04T14:35:58.908Z,0.87
2023-11-04T14:38:25.845Z,1.33
2023-11-04T14:40:52.682Z,1.00
2023-11-04T14:43:19.476Z,0.80
2023-11-04T14:45:46.458Z,1.00
2023-11-04T14:48:13.418Z,0.90
2023-11-04T14:50:41.668Z,0.80
2023-11-04T14:53:08.643Z,0.93
2023-11-04T14:55:35.547Z,1.00
2023-11-04T14:58:02.609Z,1.00
2023-11-04T15:00:29.384Z,0.77
2023-11-04T15:02:56.281Z,1.00
2023-11-04T15:05:23.258Z,0.97
2023-11-04T15:07:50.369Z,0.80
2023-11-04T15:10:17.341Z,1.20
2023-11-04T15:12:48.088Z,0.90
2023-11-04T15:15:15.118Z,0.80
2023-11-04T15:17:41.938Z,0.90
2023-11-04T15:20:10.537Z,1.20
2023-11-04T15:22:38.019Z,0.80
2023-11-04T15:25:07.017Z,0.70
2023-11-04T15:27:33.971Z,1.10
2023-11-04T15:30:01.477Z,0.93
2023-11-04T15:32:28.325Z,0.90
2023-11-04T15:34:55.152Z,0.90
2023-11-04T15:37:23.876Z,0.90
2023-11-04T15:39:52.547Z,0.90
2023-11-04T15:42:20.046Z,0.93
2023-11-04T15:44:47.344Z,0.97
2023-11-04T15:47:14.127Z,0.60
2023-11-04T15:49:40.924Z,1.07
2023-11-04T15:52:08.237Z,0.80
2023-11-04T15:54:35.393Z,0.90
2023-11-04T15:57:02.218Z,0.80
2023-11-04T15:59:29.022Z,0.90
2023-11-04T16:01:55.788Z,0.90
2023-11-04T16:04:22.678Z,0.80
2023-11-04T16:06:49.782Z,0.70
2023-11-04T16:09:16.603Z,1.17
2023-11-04T16:11:43.387Z,0.80
2023-11-04T16:14:10.288Z,1.00
2023-11-04T16:16:37.116Z,0.80
2023-11-04T16:19:03.942Z,0.70
2023-11-04T16:21:30.846Z,0.70
2023-11-04T16:23:57.603Z,0.90
2023-11-04T16:26:24.420Z,0.83
2023-11-04T16:28:51.384Z,0.70
2023-11-04T16:31:23.891Z,1.00
2023-11-04T16:33:51.774Z,1.23
2023-11-04T16:36:19.946Z,1.30
2023-11-04T16:38:46.785Z,2.47
2023-11-04T16:41:13.648Z,1.90
2023-11-04T16:43:40.402Z,1.00
2023-11-04T16:46:10.638Z,0.80
2023-11-04T16:48:37.563Z,0.83
2023-11-04T16:51:05.107Z,0.80
2023-11-04T16:53:31.865Z,0.87
2023-11-04T16:55:58.576Z,0.73
2023-11-04T16:58:25.424Z,0.93
2023-11-04T17:00:52.287Z,0.90
2023-11-04T17:03:19.181Z,1.00
2023-11-04T17:05:45.984Z,1.07
2023-11-04T17:08:14.454Z,1.00
2023-11-04T17:10:41.337Z,0.80
2023-11-04T17:13:08.308Z,0.87
2023-11-04T17:15:35.526Z,0.80
2023-11-04T17:18:02.628Z,1.20
2023-11-04T17:20:29.492Z,1.10
2023-11-04T17:22:56.221Z,1.10
2023-11-04T17:25:23.014Z,1.03
2023-11-04T17:27:49.808Z,1.40
2023-11-04T17:30:16.633Z,1.10
2023-11-04T17:32:43.408Z,1.50
2023-11-04T17:35:10.246Z,1.40
2023-11-04T17:37:37.625Z,1.10
2023-11-04T17:40:04.914Z,4.57
2023-11-04T17:42:32.552Z,1.00
2023-11-04T17:44:59.704Z,1.33
2023-11-04T17:47:26.578Z,1.10
2023-11-04T17:49:53.393Z,1.00
2023-11-04T17:52:20.273Z,1.50
2023-11-04T17:54:47.191Z,1.67
2023-11-04T17:57:14.228Z,2.00
2023-11-04T17:59:41.157Z,1.67
2023-11-04T18:02:09.594Z,1.93
2023-11-04T18:04:36.544Z,1.43
2023-11-04T18:07:03.696Z,1.73
2023-11-04T18:09:31.667Z,2.23
2023-11-04T18:11:58.418Z,2.83
2023-11-04T18:14:26.428Z,1.70
2023-11-04T18:16:53.267Z,2.00
2023-11-04T18:19:20.576Z,2.07
2023-11-04T18:21:48.489Z,1.90
2023-11-04T18:24:17.051Z,2.10
2023-11-04T18:26:44.609Z,1.50
2023-11-04T18:29:14.457Z,1.27
2023-11-04T18:31:41.332Z,1.40
2023-11-04T18:34:08.799Z,1.57
2023-11-04T18:36:35.639Z,1.53
2023-11-04T18:39:02.388Z,1.40
2023-11-04T18:41:29.155Z,1.30
2023-11-04T18:43:58.680Z,1.40
2023-11-04T18:46:25.495Z,1.30
2023-11-04T18:48:52.445Z,1.67
2023-11-04T18:51:20.238Z,2.60
2023-11-04T18:53:47.296Z,1.97
2023-11-04T18:56:16.741Z,1.30
2023-11-04T18:58:43.690Z,1.37
2023-11-04T19:01:10.478Z,1.17
2023-11-04T19:03:37.439Z,1.10
2023-11-04T19:06:04.623Z,1.30
2023-11-04T19:08:34.949Z,1.17
2023-11-04T19:11:02.688Z,1.30
2023-11-04T19:13:30.498Z,1.70
2023-11-04T19:15:57.474Z,1.50
2023-11-04T19:18:24.412Z,1.57
2023-11-04T19:20:51.234Z,1.63
2023-11-04T19:23:18.107Z,1.63
2023-11-04T19:25:44.868Z,2.00
2023-11-04T19:28:12.191Z,1.57
2023-11-04T19:30:38.940Z,1.87
2023-11-04T19:33:06.677Z,1.90
2023-11-04T19:35:33.817Z,2.20
2023-11-04T19:38:00.653Z,2.17
2023-11-04T19:40:27.562Z,1.63
2023-11-04T19:42:55.847Z,1.30
2023-11-04T19:45:23.485Z,1.80
2023-11-04T19:47:50.814Z,1.63
2023-11-04T19:50:17.874Z,2.80
2023-11-04T19:52:47.740Z,4.07
2023-11-04T19:55:15.138Z,2.93
2023-11-04T19:57:41.922Z,6.10
2023-11-04T20:00:09.310Z,3.47
2023-11-04T20:02:36.723Z,4.67
2023-11-04T20:05:04.314Z,5.57
2023-11-04T20:07:31.318Z,3.77
2023-11-04T20:09:58.138Z,2.30
2023-11-04T20:12:24.950Z,4.30
2023-11-04T20:14:51.758Z,4.67
2023-11-04T20:17:19.934Z,3.27
2023-11-04T20:19:48.160Z,2.20
2023-11-04T20:22:15.873Z,2.77
2023-11-04T20:24:53.562Z,4.30
2023-11-04T20:27:21.970Z,3.97
2023-11-04T20:29:49.878Z,4.10
2023-11-04T20:32:18.027Z,10.77
2023-11-04T20:34:45.037Z,6.67
2023-11-04T20:37:12.194Z,5.00
2023-11-04T20:39:39.040Z,6.47
2023-11-04T20:42:06.404Z,9.40
2023-11-04T20:44:33.333Z,11.10
2023-11-04T20:47:00.263Z,8.60
2023-11-04T20:49:27.058Z,1.90
2023-11-04T20:51:54.003Z,1.40
2023-11-04T20:54:22.205Z,1.30
2023-11-04T20:56:50.355Z,4.10
2023-11-04T20:59:17.770Z,2.93
2023-11-04T21:01:44.945Z,2.30
2023-11-04T21:04:12.517Z,3.53
2023-11-04T21:06:40.150Z,3.10
2023-11-04T21:09:09.219Z,2.10
2023-11-04T21:11:36.313Z,2.10
2023-11-04T21:14:05.743Z,2.07
2023-11-04T21:16:32.553Z,2.60
2023-11-04T21:18:59.534Z,2.10
2023-11-04T21:21:27.007Z,2.30
2023-11-04T21:23:54.054Z,2.33
2023-11-04T21:26:21.017Z,2.10
2023-11-04T21:28:52.355Z,1.20
2023-11-04T21:31:19.511Z,1.57
2023-11-04T21:33:46.315Z,1.80
2023-11-04T21:36:14.142Z,2.17
2023-11-04T21:38:41.006Z,1.60
2023-11-04T21:41:08.643Z,1.60
2023-11-04T21:43:35.661Z,1.50
2023-11-04T21:46:02.556Z,1.50
2023-11-04T21:48:29.390Z,1.50
2023-11-04T21:50:56.367Z,1.27
2023-11-04T21:53:24.224Z,0.73
2023-11-04T21:55:51.060Z,1.07
2023-11-04T21:58:18.168Z,1.10
2023-11-04T22:00:45.913Z,1.03
2023-11-04T22:03:13.158Z,1.00
2023-11-04T22:05:39.946Z,1.10
2023-11-04T22:08:07.306Z,1.00
2023-11-04T22:10:38.953Z,1.30
2023-11-04T22:13:06.091Z,1.80
2023-11-04T22:15:33.096Z,1.27
2023-11-04T22:17:59.916Z,1.50
2023-11-04T22:20:26.727Z,1.00
2023-11-04T22:22:53.461Z,1.20
2023-11-04T22:25:20.280Z,1.00
2023-11-04T22:27:47.004Z,0.97
2023-11-04T22:30:13.779Z,0.80
2023-11-04T22:32:40.637Z,1.00
2023-11-04T22:35:07.686Z,1.00
2023-11-04T22:37:34.471Z,1.60
2023-11-04T22:40:01.224Z,1.00
2023-11-04T22:42:28.154Z,0.93
2023-11-04T22:44:54.861Z,1.70
2023-11-04T22:47:21.622Z,1.20
2023-11-04T22:49:48.340Z,1.00
2023-11-04T22:52:15.184Z,1.30
2023-11-04T22:54:42.000Z,1.23
2023-11-04T22:57:08.820Z,1.03
2023-11-04T22:59:35.713Z,1.30
2023-11-04T23:02:02.525Z,0.80
2023-11-04T23:04:29.579Z,0.90
2023-11-04T23:06:56.489Z,0.87
2023-11-04T23:09:23.439Z,1.00
2023-11-04T23:11:50.407Z,0.80
2023-11-04T23:14:17.371Z,0.80
2023-11-04T23:16:45.977Z,0.70
2023-11-04T23:19:12.957Z,0.97
2023-11-04T23:21:39.769Z,0.70
2023-11-04T23:24:07.204Z,0.63
2023-11-04T23:26:34.207Z,0.67
2023-11-04T23:29:01.099Z,0.70
2023-11-04T23:31:28.058Z,0.80
2023-11-04T23:33:54.908Z,0.53
2023-11-04T23:36:21.772Z,0.60
2023-11-04T23:38:48.553Z,0.50
2023-11-04T23:41:15.388Z,0.50
2023-11-04T23:43:42.161Z,0.60
2023-11-04T23:46:09.053Z,0.70
2023-11-04T23:48:35.853Z,0.70
2023-11-04T23:51:02.557Z,0.70
2023-11-04T23:53:29.284Z,0.70
2023-11-04T23:55:56.441Z,1.50
2023-11-04T23:58:23.162Z,1.00
